EZY72FK LGKF-EGKK
Flight info
| Callsign | EZY72FK |
|---|---|
| Flight time | 3h 23m |
| Altitude | 38000 |
| Route | LATAN DCT AIOSA DCT IXONA DCT RESIA DCT ELMUR L613 HOC DCT LUL DCT RLP DCT ROTSI DCT KOTUN DCT NINAL DCT KESAX DCT KUNAV |
| Aircraft | A320/M-SDE2E3FGHIJ1RWXYZ/LB1 |
Departure
| Time | 2026-04-21 14:33 |
|---|---|
| Airport | Kefallinia Airport (LGKF) |
Arrival
| Time | 2026-04-21 17:57 |
|---|---|
| Airport | London Gatwick Airport (EGKK) |
| Time | Latitude | Longitude | Altitude | Speed | Heading |
|---|---|---|---|---|---|
| 2026-04-21 14:12 | 38.11855 | 20.50445 | 68 ft | 0 kts | 56° |
| 2026-04-21 14:25 | 38.11843 | 20.50422 | 60 ft | 4 kts | 54° |
| 2026-04-21 14:25 | 38.11826 | 20.50396 | 59 ft | 4 kts | 39° |
| 2026-04-21 14:25 | 38.11806 | 20.50383 | 63 ft | 2 kts | 7° |
| 2026-04-21 14:25 | 38.11820 | 20.50371 | 60 ft | 4 kts | 315° |
| 2026-04-21 14:26 | 38.11840 | 20.50349 | 67 ft | 3 kts | 325° |
| 2026-04-21 14:26 | 38.11842 | 20.50347 | 61 ft | 0 kts | 326° |
| 2026-04-21 14:27 | 38.11855 | 20.50337 | 65 ft | 5 kts | 326° |
| 2026-04-21 14:28 | 38.11881 | 20.50313 | 64 ft | 5 kts | 321° |
| 2026-04-21 14:28 | 38.11896 | 20.50242 | 68 ft | 12 kts | 262° |
| 2026-04-21 14:28 | 38.11905 | 20.50133 | 63 ft | 13 kts | 312° |
| 2026-04-21 14:28 | 38.11989 | 20.50058 | 60 ft | 18 kts | 326° |
| 2026-04-21 14:29 | 38.12120 | 20.49949 | 63 ft | 26 kts | 326° |
| 2026-04-21 14:29 | 38.12281 | 20.49812 | 53 ft | 30 kts | 327° |
| 2026-04-21 14:29 | 38.12460 | 20.49661 | 56 ft | 31 kts | 326° |
| 2026-04-21 14:29 | 38.12631 | 20.49518 | 50 ft | 28 kts | 326° |
| 2026-04-21 14:30 | 38.12765 | 20.49404 | 44 ft | 17 kts | 325° |
| 2026-04-21 14:30 | 38.12850 | 20.49346 | 42 ft | 12 kts | 350° |
| 2026-04-21 14:30 | 38.12908 | 20.49330 | 40 ft | 7 kts | 321° |
| 2026-04-21 14:30 | 38.12911 | 20.49304 | 40 ft | 2 kts | 248° |
| 2026-04-21 14:31 | 38.12898 | 20.49298 | 40 ft | 3 kts | 185° |
| 2026-04-21 14:31 | 38.12884 | 20.49305 | 40 ft | 2 kts | 154° |
| 2026-04-21 14:31 | 38.12881 | 20.49308 | 40 ft | 0 kts | 148° |
| 2026-04-21 14:32 | 38.12880 | 20.49309 | 41 ft | 3 kts | 148° |
| 2026-04-21 14:32 | 38.12695 | 20.49464 | 47 ft | 74 kts | 146° |
| 2026-04-21 14:33 | 38.12060 | 20.49998 | 64 ft | 142 kts | 146° |
| 2026-04-21 14:33 | 38.11141 | 20.50772 | 552 ft | 161 kts | 147° |
| 2026-04-21 14:33 | 38.10206 | 20.51567 | 1406 ft | 168 kts | 148° |
| 2026-04-21 14:33 | 38.09184 | 20.52493 | 2018 ft | 193 kts | 147° |
| 2026-04-21 14:34 | 38.07977 | 20.53452 | 2686 ft | 217 kts | 162° |
| 2026-04-21 14:34 | 38.06424 | 20.53588 | 3327 ft | 238 kts | 197° |
| 2026-04-21 14:34 | 38.05023 | 20.52399 | 4039 ft | 254 kts | 236° |
| 2026-04-21 14:34 | 38.04472 | 20.50286 | 5041 ft | 259 kts | 271° |
| 2026-04-21 14:35 | 38.05021 | 20.48124 | 6161 ft | 264 kts | 302° |
| 2026-04-21 14:35 | 38.06230 | 20.46352 | 7278 ft | 268 kts | 315° |
| 2026-04-21 14:35 | 38.07650 | 20.44789 | 8385 ft | 272 kts | 319° |
| 2026-04-21 14:35 | 38.09138 | 20.43272 | 9476 ft | 277 kts | 319° |
| 2026-04-21 14:36 | 38.10652 | 20.41713 | 10417 ft | 286 kts | 318° |
| 2026-04-21 14:36 | 38.12230 | 20.40019 | 10980 ft | 305 kts | 316° |
| 2026-04-21 14:36 | 38.13845 | 20.38219 | 11888 ft | 311 kts | 315° |
| 2026-04-21 14:36 | 38.15463 | 20.36369 | 12901 ft | 314 kts | 315° |
| 2026-04-21 14:37 | 38.17080 | 20.34489 | 13911 ft | 316 kts | 314° |
| 2026-04-21 14:37 | 38.18704 | 20.32584 | 14789 ft | 319 kts | 314° |
| 2026-04-21 14:37 | 38.20339 | 20.30660 | 15642 ft | 322 kts | 314° |
| 2026-04-21 14:37 | 38.21986 | 20.28719 | 16486 ft | 325 kts | 314° |
| 2026-04-21 14:38 | 38.23652 | 20.26761 | 17325 ft | 328 kts | 315° |
| 2026-04-21 14:38 | 38.25335 | 20.24784 | 18190 ft | 331 kts | 315° |
| 2026-04-21 14:38 | 38.27035 | 20.22786 | 18918 ft | 334 kts | 314° |
| 2026-04-21 14:38 | 38.28750 | 20.20768 | 19625 ft | 338 kts | 314° |
| 2026-04-21 14:39 | 38.30486 | 20.18727 | 20322 ft | 341 kts | 314° |
| 2026-04-21 14:39 | 38.32239 | 20.16663 | 21019 ft | 345 kts | 314° |
| 2026-04-21 14:39 | 38.33987 | 20.14604 | 21689 ft | 349 kts | 314° |
| 2026-04-21 14:39 | 38.35797 | 20.12467 | 22377 ft | 352 kts | 314° |
| 2026-04-21 14:40 | 38.36991 | 20.11056 | 22810 ft | 355 kts | 314° |
| 2026-04-21 14:40 | 38.39400 | 20.08206 | 23656 ft | 359 kts | 314° |
| 2026-04-21 14:40 | 38.41241 | 20.06027 | 24207 ft | 362 kts | 314° |
| 2026-04-21 14:40 | 38.43095 | 20.03835 | 24763 ft | 365 kts | 314° |
| 2026-04-21 14:41 | 38.44964 | 20.01623 | 25308 ft | 368 kts | 314° |
| 2026-04-21 14:41 | 38.46848 | 19.99393 | 25851 ft | 370 kts | 314° |
| 2026-04-21 14:41 | 38.48743 | 19.97148 | 26382 ft | 373 kts | 314° |
| 2026-04-21 14:41 | 38.50650 | 19.94888 | 26922 ft | 376 kts | 314° |
| 2026-04-21 14:42 | 38.51947 | 19.93351 | 27287 ft | 377 kts | 314° |
| 2026-04-21 14:42 | 38.53874 | 19.91063 | 27836 ft | 379 kts | 314° |
| 2026-04-21 14:42 | 38.55810 | 19.88765 | 28361 ft | 381 kts | 314° |
| 2026-04-21 14:42 | 38.57759 | 19.86448 | 28860 ft | 384 kts | 314° |
| 2026-04-21 14:43 | 38.59720 | 19.84112 | 29349 ft | 387 kts | 314° |
| 2026-04-21 14:43 | 38.61692 | 19.81758 | 29831 ft | 390 kts | 314° |
| 2026-04-21 14:43 | 38.63678 | 19.79383 | 30291 ft | 392 kts | 314° |
| 2026-04-21 14:43 | 38.65653 | 19.77023 | 30674 ft | 395 kts | 314° |
| 2026-04-21 14:44 | 38.67668 | 19.74613 | 31072 ft | 397 kts | 314° |
| 2026-04-21 14:44 | 38.69699 | 19.72185 | 31459 ft | 400 kts | 314° |
| 2026-04-21 14:44 | 38.71732 | 19.69758 | 31950 ft | 399 kts | 314° |
| 2026-04-21 14:44 | 38.73757 | 19.67339 | 32504 ft | 397 kts | 314° |
| 2026-04-21 14:45 | 38.75773 | 19.64926 | 33028 ft | 396 kts | 314° |
| 2026-04-21 14:45 | 38.77781 | 19.62517 | 33580 ft | 395 kts | 314° |
| 2026-04-21 14:45 | 38.79784 | 19.60112 | 34115 ft | 394 kts | 314° |
| 2026-04-21 14:45 | 38.81776 | 19.57717 | 34554 ft | 393 kts | 314° |
| 2026-04-21 14:46 | 38.83765 | 19.55319 | 34961 ft | 392 kts | 314° |
| 2026-04-21 14:46 | 38.85751 | 19.52923 | 35361 ft | 392 kts | 314° |
| 2026-04-21 14:46 | 38.87737 | 19.50531 | 35734 ft | 392 kts | 314° |
| 2026-04-21 14:46 | 38.89724 | 19.48136 | 36113 ft | 392 kts | 314° |
| 2026-04-21 14:47 | 38.91710 | 19.45742 | 36488 ft | 391 kts | 314° |
| 2026-04-21 14:47 | 38.93692 | 19.43354 | 36886 ft | 390 kts | 314° |
| 2026-04-21 14:47 | 38.95671 | 19.40968 | 37266 ft | 390 kts | 314° |
| 2026-04-21 14:47 | 38.97643 | 19.38585 | 37619 ft | 389 kts | 314° |
| 2026-04-21 14:48 | 38.99619 | 19.36193 | 37920 ft | 390 kts | 313° |
| 2026-04-21 14:48 | 39.03547 | 19.31435 | 37970 ft | 386 kts | 313° |
| 2026-04-21 14:49 | 39.07432 | 19.26722 | 37969 ft | 386 kts | 313° |
| 2026-04-21 14:49 | 39.11336 | 19.21985 | 37966 ft | 386 kts | 314° |
| 2026-04-21 14:50 | 39.15241 | 19.17256 | 37963 ft | 385 kts | 313° |
| 2026-04-21 14:50 | 39.19137 | 19.12513 | 37964 ft | 385 kts | 313° |
| 2026-04-21 14:51 | 39.23018 | 19.07761 | 37973 ft | 385 kts | 313° |
| 2026-04-21 14:51 | 39.26893 | 19.03008 | 37973 ft | 384 kts | 313° |
| 2026-04-21 14:52 | 39.31163 | 18.98836 | 37972 ft | 391 kts | 329° |
| 2026-04-21 14:52 | 39.36060 | 18.95744 | 37981 ft | 391 kts | 329° |
| 2026-04-21 14:53 | 39.40947 | 18.92635 | 37975 ft | 391 kts | 329° |
| 2026-04-21 14:53 | 39.45829 | 18.89511 | 37972 ft | 391 kts | 329° |
| 2026-04-21 14:54 | 39.50700 | 18.86388 | 37969 ft | 391 kts | 329° |
| 2026-04-21 14:54 | 39.55543 | 18.83281 | 37957 ft | 391 kts | 329° |
| 2026-04-21 14:55 | 39.60412 | 18.80158 | 37975 ft | 390 kts | 329° |
| 2026-04-21 14:55 | 39.65268 | 18.77015 | 37960 ft | 390 kts | 329° |
| 2026-04-21 14:56 | 39.70121 | 18.73873 | 37957 ft | 390 kts | 329° |
| 2026-04-21 14:56 | 39.74977 | 18.70733 | 37954 ft | 389 kts | 329° |
| 2026-04-21 14:57 | 39.79831 | 18.67596 | 37944 ft | 389 kts | 329° |
| 2026-04-21 14:57 | 39.84680 | 18.64464 | 37958 ft | 389 kts | 329° |
| 2026-04-21 14:58 | 39.89529 | 18.61320 | 37959 ft | 389 kts | 329° |
| 2026-04-21 14:58 | 39.94372 | 18.58177 | 37953 ft | 389 kts | 329° |
| 2026-04-21 14:59 | 39.99179 | 18.55057 | 37945 ft | 388 kts | 329° |
| 2026-04-21 14:59 | 40.04015 | 18.51909 | 37946 ft | 388 kts | 329° |
| 2026-04-21 15:00 | 40.08857 | 18.48752 | 37954 ft | 388 kts | 329° |
| 2026-04-21 15:00 | 40.13690 | 18.45596 | 37944 ft | 388 kts | 329° |
| 2026-04-21 15:01 | 40.18521 | 18.42434 | 37936 ft | 388 kts | 329° |
| 2026-04-21 15:01 | 40.23352 | 18.39268 | 37932 ft | 388 kts | 329° |
| 2026-04-21 15:02 | 40.28189 | 18.36092 | 37928 ft | 388 kts | 329° |
| 2026-04-21 15:02 | 40.33020 | 18.32912 | 37939 ft | 389 kts | 329° |
| 2026-04-21 15:03 | 40.37826 | 18.29753 | 37934 ft | 388 kts | 329° |
| 2026-04-21 15:03 | 40.42665 | 18.26576 | 37932 ft | 388 kts | 329° |
| 2026-04-21 15:04 | 40.47496 | 18.23393 | 37930 ft | 388 kts | 329° |
| 2026-04-21 15:04 | 40.52316 | 18.20195 | 37929 ft | 388 kts | 329° |
| 2026-04-21 15:05 | 40.57141 | 18.16988 | 37946 ft | 389 kts | 328° |
| 2026-04-21 15:05 | 40.64378 | 18.12168 | 37937 ft | 389 kts | 328° |
| 2026-04-21 15:06 | 40.69212 | 18.08952 | 37925 ft | 389 kts | 328° |
| 2026-04-21 15:06 | 40.74039 | 18.05739 | 37919 ft | 389 kts | 328° |
| 2026-04-21 15:07 | 40.78837 | 18.02545 | 37953 ft | 389 kts | 328° |
| 2026-04-21 15:07 | 40.83665 | 17.99311 | 37934 ft | 389 kts | 328° |
| 2026-04-21 15:08 | 40.88525 | 17.96043 | 37932 ft | 389 kts | 328° |
| 2026-04-21 15:08 | 40.93326 | 17.92827 | 37923 ft | 389 kts | 328° |
| 2026-04-21 15:09 | 40.98157 | 17.89578 | 37929 ft | 389 kts | 328° |
| 2026-04-21 15:09 | 41.02984 | 17.86330 | 37944 ft | 389 kts | 328° |
| 2026-04-21 15:10 | 41.07810 | 17.83075 | 37943 ft | 389 kts | 328° |
| 2026-04-21 15:10 | 41.12634 | 17.79809 | 37938 ft | 389 kts | 328° |
| 2026-04-21 15:11 | 41.17455 | 17.76546 | 37937 ft | 389 kts | 328° |
| 2026-04-21 15:11 | 41.22279 | 17.73286 | 37933 ft | 389 kts | 328° |
| 2026-04-21 15:12 | 41.27103 | 17.70020 | 37953 ft | 389 kts | 328° |
| 2026-04-21 15:12 | 41.31920 | 17.66746 | 37945 ft | 389 kts | 328° |
| 2026-04-21 15:13 | 41.36737 | 17.63472 | 37940 ft | 389 kts | 328° |
| 2026-04-21 15:13 | 41.41554 | 17.60191 | 37938 ft | 389 kts | 328° |
| 2026-04-21 15:14 | 41.46331 | 17.56926 | 37942 ft | 388 kts | 328° |
| 2026-04-21 15:14 | 41.51138 | 17.53634 | 37940 ft | 388 kts | 328° |
| 2026-04-21 15:15 | 41.55944 | 17.50333 | 37934 ft | 388 kts | 328° |
| 2026-04-21 15:15 | 41.60747 | 17.47032 | 37934 ft | 388 kts | 328° |
| 2026-04-21 15:16 | 41.65558 | 17.43724 | 37939 ft | 388 kts | 328° |
| 2026-04-21 15:16 | 41.70369 | 17.40417 | 37965 ft | 388 kts | 328° |
| 2026-04-21 15:17 | 41.75168 | 17.37107 | 37956 ft | 387 kts | 328° |
| 2026-04-21 15:17 | 41.79958 | 17.33795 | 37954 ft | 387 kts | 328° |
| 2026-04-21 15:18 | 41.84705 | 17.30497 | 37956 ft | 386 kts | 328° |
| 2026-04-21 15:18 | 41.89476 | 17.27179 | 37947 ft | 386 kts | 328° |
| 2026-04-21 15:19 | 41.94022 | 17.23452 | 37971 ft | 379 kts | 315° |
| 2026-04-21 15:19 | 41.97958 | 17.18758 | 37961 ft | 378 kts | 315° |
| 2026-04-21 15:20 | 42.01897 | 17.14062 | 37955 ft | 378 kts | 315° |
| 2026-04-21 15:20 | 42.05834 | 17.09374 | 37949 ft | 378 kts | 315° |
| 2026-04-21 15:21 | 42.09773 | 17.04675 | 37937 ft | 378 kts | 315° |
| 2026-04-21 15:21 | 42.13707 | 16.99975 | 37940 ft | 378 kts | 315° |
| 2026-04-21 15:22 | 42.17633 | 16.95281 | 37967 ft | 378 kts | 315° |
| 2026-04-21 15:22 | 42.21562 | 16.90576 | 37962 ft | 378 kts | 314° |
| 2026-04-21 15:23 | 42.25486 | 16.85856 | 37958 ft | 377 kts | 314° |
| 2026-04-21 15:23 | 42.29401 | 16.81135 | 37950 ft | 377 kts | 314° |
| 2026-04-21 15:24 | 42.33291 | 16.76441 | 37947 ft | 377 kts | 314° |
| 2026-04-21 15:24 | 42.37203 | 16.71716 | 37946 ft | 377 kts | 314° |
| 2026-04-21 15:25 | 42.41124 | 16.66976 | 37960 ft | 378 kts | 314° |
| 2026-04-21 15:25 | 42.45042 | 16.62235 | 37948 ft | 378 kts | 314° |
| 2026-04-21 15:26 | 42.48961 | 16.57484 | 37947 ft | 378 kts | 314° |
| 2026-04-21 15:26 | 42.52878 | 16.52720 | 37949 ft | 378 kts | 314° |
| 2026-04-21 15:27 | 42.56799 | 16.47946 | 37948 ft | 379 kts | 314° |
| 2026-04-21 15:27 | 42.60717 | 16.43165 | 37949 ft | 378 kts | 314° |
| 2026-04-21 15:28 | 42.63968 | 16.39184 | 37951 ft | 379 kts | 314° |
| 2026-04-21 15:28 | 42.67880 | 16.34392 | 37956 ft | 378 kts | 314° |
| 2026-04-21 15:29 | 42.71786 | 16.29599 | 37959 ft | 378 kts | 314° |
| 2026-04-21 15:29 | 42.75695 | 16.24796 | 37956 ft | 378 kts | 314° |
| 2026-04-21 15:30 | 42.79601 | 16.19997 | 37959 ft | 379 kts | 314° |
| 2026-04-21 15:30 | 42.83507 | 16.15186 | 37960 ft | 378 kts | 314° |
| 2026-04-21 15:31 | 42.87404 | 16.10369 | 37958 ft | 378 kts | 314° |
| 2026-04-21 15:31 | 42.91303 | 16.05540 | 37978 ft | 378 kts | 314° |
| 2026-04-21 15:32 | 42.95173 | 16.00745 | 37969 ft | 379 kts | 314° |
| 2026-04-21 15:32 | 42.99075 | 15.95904 | 37955 ft | 379 kts | 314° |
| 2026-04-21 15:33 | 43.02969 | 15.91054 | 37950 ft | 379 kts | 314° |
| 2026-04-21 15:33 | 43.06869 | 15.86193 | 37950 ft | 379 kts | 314° |
| 2026-04-21 15:34 | 43.10773 | 15.81320 | 37953 ft | 380 kts | 314° |
| 2026-04-21 15:34 | 43.14672 | 15.76441 | 37976 ft | 380 kts | 314° |
| 2026-04-21 15:35 | 43.18576 | 15.71553 | 37972 ft | 380 kts | 314° |
| 2026-04-21 15:35 | 43.22466 | 15.66666 | 37967 ft | 379 kts | 314° |
| 2026-04-21 15:36 | 43.26354 | 15.61772 | 37967 ft | 379 kts | 314° |
| 2026-04-21 15:36 | 43.30238 | 15.56878 | 37957 ft | 379 kts | 314° |
| 2026-04-21 15:37 | 43.34119 | 15.51983 | 37951 ft | 379 kts | 314° |
| 2026-04-21 15:37 | 43.37971 | 15.47112 | 37969 ft | 378 kts | 314° |
| 2026-04-21 15:38 | 43.41843 | 15.42205 | 37966 ft | 378 kts | 314° |
| 2026-04-21 15:38 | 43.45715 | 15.37290 | 37969 ft | 378 kts | 314° |
| 2026-04-21 15:39 | 43.49584 | 15.32377 | 37966 ft | 378 kts | 314° |
| 2026-04-21 15:39 | 43.53449 | 15.27455 | 37965 ft | 378 kts | 314° |
| 2026-04-21 15:40 | 43.57284 | 15.22561 | 37961 ft | 378 kts | 314° |
| 2026-04-21 15:40 | 43.61136 | 15.17631 | 37981 ft | 378 kts | 314° |
| 2026-04-21 15:41 | 43.64991 | 15.12698 | 37979 ft | 378 kts | 314° |
| 2026-04-21 15:41 | 43.68848 | 15.07764 | 37971 ft | 378 kts | 314° |
| 2026-04-21 15:42 | 43.72689 | 15.02821 | 37972 ft | 377 kts | 314° |
| 2026-04-21 15:42 | 43.76531 | 14.97868 | 37969 ft | 377 kts | 314° |
| 2026-04-21 15:43 | 43.80373 | 14.92913 | 37973 ft | 378 kts | 314° |
| 2026-04-21 15:43 | 43.84217 | 14.87938 | 37962 ft | 378 kts | 314° |
| 2026-04-21 15:44 | 43.85456 | 14.86328 | 37963 ft | 378 kts | 314° |
| 2026-04-21 15:44 | 43.89292 | 14.81352 | 37966 ft | 378 kts | 314° |
| 2026-04-21 15:45 | 43.93137 | 14.76374 | 37965 ft | 378 kts | 314° |
| 2026-04-21 15:45 | 43.96950 | 14.71422 | 37963 ft | 377 kts | 314° |
| 2026-04-21 15:46 | 44.00776 | 14.66438 | 37967 ft | 377 kts | 314° |
| 2026-04-21 15:46 | 44.04594 | 14.61446 | 37968 ft | 377 kts | 313° |
| 2026-04-21 15:47 | 44.08417 | 14.56445 | 37987 ft | 377 kts | 314° |
| 2026-04-21 15:47 | 44.12236 | 14.51441 | 37980 ft | 377 kts | 314° |
| 2026-04-21 15:48 | 44.16053 | 14.46423 | 37971 ft | 377 kts | 314° |
| 2026-04-21 15:48 | 44.19874 | 14.41405 | 37969 ft | 377 kts | 314° |
| 2026-04-21 15:49 | 44.23692 | 14.36387 | 37969 ft | 377 kts | 314° |
| 2026-04-21 15:49 | 44.27505 | 14.31355 | 37968 ft | 377 kts | 314° |
| 2026-04-21 15:50 | 44.31313 | 14.26312 | 37973 ft | 377 kts | 314° |
| 2026-04-21 15:50 | 44.35089 | 14.21299 | 37966 ft | 377 kts | 314° |
| 2026-04-21 15:51 | 44.38903 | 14.16240 | 37969 ft | 378 kts | 314° |
| 2026-04-21 15:51 | 44.42717 | 14.11177 | 37971 ft | 378 kts | 314° |
| 2026-04-21 15:52 | 44.46528 | 14.06102 | 37973 ft | 378 kts | 313° |
| 2026-04-21 15:52 | 44.50332 | 14.01017 | 37974 ft | 378 kts | 313° |
| 2026-04-21 15:53 | 44.54134 | 13.95929 | 37992 ft | 378 kts | 313° |
| 2026-04-21 15:53 | 44.57934 | 13.90831 | 37990 ft | 378 kts | 313° |
| 2026-04-21 15:54 | 44.61743 | 13.85718 | 37982 ft | 378 kts | 313° |
| 2026-04-21 15:54 | 44.65545 | 13.80602 | 37981 ft | 378 kts | 313° |
| 2026-04-21 15:55 | 44.69325 | 13.75509 | 37981 ft | 379 kts | 313° |
| 2026-04-21 15:55 | 44.73132 | 13.70378 | 37973 ft | 379 kts | 313° |
| 2026-04-21 15:56 | 44.76930 | 13.65239 | 38005 ft | 379 kts | 313° |
| 2026-04-21 15:56 | 44.80729 | 13.60092 | 38006 ft | 379 kts | 313° |
| 2026-04-21 15:57 | 44.84476 | 13.54886 | 37998 ft | 377 kts | 308° |
| 2026-04-21 15:57 | 44.87516 | 13.48903 | 37982 ft | 375 kts | 303° |
| 2026-04-21 15:58 | 44.90494 | 13.42862 | 37968 ft | 375 kts | 303° |
| 2026-04-21 15:58 | 44.93452 | 13.36850 | 37972 ft | 375 kts | 303° |
| 2026-04-21 15:59 | 44.96425 | 13.30798 | 37973 ft | 375 kts | 303° |
| 2026-04-21 15:59 | 44.99397 | 13.24750 | 37976 ft | 375 kts | 303° |
| 2026-04-21 16:00 | 45.02371 | 13.18685 | 38004 ft | 375 kts | 303° |
| 2026-04-21 16:00 | 45.05337 | 13.12610 | 37998 ft | 375 kts | 303° |
| 2026-04-21 16:01 | 45.08300 | 13.06526 | 37992 ft | 376 kts | 303° |
| 2026-04-21 16:01 | 45.11261 | 13.00430 | 37992 ft | 375 kts | 303° |
| 2026-04-21 16:02 | 45.14217 | 12.94339 | 37992 ft | 375 kts | 303° |
| 2026-04-21 16:02 | 45.17171 | 12.88235 | 37990 ft | 375 kts | 303° |
| 2026-04-21 16:03 | 45.20118 | 12.82138 | 37989 ft | 375 kts | 303° |
| 2026-04-21 16:03 | 45.23062 | 12.76040 | 37973 ft | 375 kts | 303° |
| 2026-04-21 16:04 | 45.26000 | 12.69930 | 37975 ft | 375 kts | 303° |
| 2026-04-21 16:04 | 45.28945 | 12.63801 | 38000 ft | 376 kts | 303° |
| 2026-04-21 16:05 | 45.31886 | 12.57657 | 38000 ft | 377 kts | 303° |
| 2026-04-21 16:05 | 45.34835 | 12.51497 | 38001 ft | 377 kts | 303° |
| 2026-04-21 16:06 | 45.37775 | 12.45320 | 37996 ft | 377 kts | 302° |
| 2026-04-21 16:06 | 45.40689 | 12.39189 | 37996 ft | 376 kts | 302° |
| 2026-04-21 16:07 | 45.43627 | 12.33013 | 37996 ft | 376 kts | 302° |
| 2026-04-21 16:07 | 45.46564 | 12.26834 | 37997 ft | 377 kts | 302° |
| 2026-04-21 16:08 | 45.50950 | 12.17542 | 37996 ft | 377 kts | 302° |
| 2026-04-21 16:09 | 45.53868 | 12.11334 | 38011 ft | 377 kts | 302° |
| 2026-04-21 16:09 | 45.56789 | 12.05120 | 38010 ft | 377 kts | 302° |
| 2026-04-21 16:10 | 45.59715 | 11.98897 | 38005 ft | 377 kts | 302° |
| 2026-04-21 16:10 | 45.62630 | 11.92667 | 38007 ft | 377 kts | 302° |
| 2026-04-21 16:11 | 45.65541 | 11.86427 | 38007 ft | 377 kts | 302° |
| 2026-04-21 16:11 | 45.68457 | 11.80185 | 37993 ft | 377 kts | 302° |
| 2026-04-21 16:12 | 45.70873 | 11.74993 | 37996 ft | 377 kts | 302° |
| 2026-04-21 16:12 | 45.74245 | 11.67730 | 37999 ft | 377 kts | 302° |
| 2026-04-21 16:13 | 45.77138 | 11.61477 | 38002 ft | 377 kts | 302° |
| 2026-04-21 16:13 | 45.80034 | 11.55209 | 38020 ft | 377 kts | 302° |
| 2026-04-21 16:14 | 45.82925 | 11.48938 | 38013 ft | 377 kts | 302° |
| 2026-04-21 16:14 | 45.85333 | 11.43708 | 38013 ft | 377 kts | 302° |
| 2026-04-21 16:15 | 45.88689 | 11.36399 | 38005 ft | 377 kts | 302° |
| 2026-04-21 16:15 | 45.91572 | 11.30107 | 37997 ft | 377 kts | 302° |
| 2026-04-21 16:16 | 45.93963 | 11.24883 | 37991 ft | 377 kts | 301° |
| 2026-04-21 16:16 | 45.96834 | 11.18592 | 37987 ft | 376 kts | 302° |
| 2026-04-21 16:17 | 45.99698 | 11.12284 | 37976 ft | 377 kts | 302° |
| 2026-04-21 16:17 | 46.02558 | 11.05971 | 37977 ft | 376 kts | 301° |
| 2026-04-21 16:18 | 46.05415 | 10.99657 | 38011 ft | 377 kts | 302° |
| 2026-04-21 16:18 | 46.08273 | 10.93338 | 38008 ft | 376 kts | 302° |
| 2026-04-21 16:19 | 46.11122 | 10.87037 | 37990 ft | 375 kts | 302° |
| 2026-04-21 16:19 | 46.13966 | 10.80723 | 37983 ft | 375 kts | 302° |
| 2026-04-21 16:20 | 46.16783 | 10.74435 | 37965 ft | 375 kts | 302° |
| 2026-04-21 16:20 | 46.19629 | 10.68080 | 37966 ft | 375 kts | 302° |
| 2026-04-21 16:21 | 46.22440 | 10.61795 | 37963 ft | 375 kts | 302° |
| 2026-04-21 16:21 | 46.25274 | 10.55452 | 37974 ft | 375 kts | 302° |
| 2026-04-21 16:22 | 46.28098 | 10.49095 | 37977 ft | 376 kts | 302° |
| 2026-04-21 16:22 | 46.30917 | 10.42741 | 37960 ft | 375 kts | 302° |
| 2026-04-21 16:23 | 46.33736 | 10.36379 | 37967 ft | 375 kts | 302° |
| 2026-04-21 16:23 | 46.36546 | 10.30024 | 37967 ft | 374 kts | 302° |
| 2026-04-21 16:24 | 46.39368 | 10.23663 | 37977 ft | 374 kts | 302° |
| 2026-04-21 16:24 | 46.42159 | 10.17348 | 37993 ft | 375 kts | 301° |
| 2026-04-21 16:25 | 46.44953 | 10.10970 | 38003 ft | 375 kts | 301° |
| 2026-04-21 16:25 | 46.47768 | 10.04591 | 37981 ft | 376 kts | 305° |
| 2026-04-21 16:26 | 46.51206 | 9.98834 | 37981 ft | 378 kts | 309° |
| 2026-04-21 16:26 | 46.54690 | 9.93113 | 37994 ft | 379 kts | 309° |
| 2026-04-21 16:27 | 46.58181 | 9.87365 | 37986 ft | 380 kts | 309° |
| 2026-04-21 16:27 | 46.61680 | 9.81589 | 37988 ft | 381 kts | 309° |
| 2026-04-21 16:28 | 46.65189 | 9.75784 | 37977 ft | 382 kts | 309° |
| 2026-04-21 16:28 | 46.68701 | 9.69955 | 37987 ft | 383 kts | 309° |
| 2026-04-21 16:29 | 46.72186 | 9.64161 | 37998 ft | 383 kts | 309° |
| 2026-04-21 16:29 | 46.75697 | 9.58313 | 38022 ft | 384 kts | 309° |
| 2026-04-21 16:30 | 46.79209 | 9.52442 | 38062 ft | 383 kts | 310° |
| 2026-04-21 16:30 | 46.82714 | 9.46579 | 38054 ft | 383 kts | 310° |
| 2026-04-21 16:31 | 46.86218 | 9.40716 | 38045 ft | 383 kts | 310° |
| 2026-04-21 16:31 | 46.89710 | 9.34853 | 38042 ft | 382 kts | 309° |
| 2026-04-21 16:32 | 46.93199 | 9.28977 | 38055 ft | 382 kts | 310° |
| 2026-04-21 16:32 | 46.96684 | 9.23098 | 38057 ft | 382 kts | 310° |
| 2026-04-21 16:33 | 47.00157 | 9.17223 | 38059 ft | 382 kts | 310° |
| 2026-04-21 16:33 | 47.03627 | 9.11342 | 38082 ft | 382 kts | 310° |
| 2026-04-21 16:34 | 47.07109 | 9.05427 | 38073 ft | 383 kts | 310° |
| 2026-04-21 16:34 | 47.10590 | 8.99492 | 38076 ft | 383 kts | 310° |
| 2026-04-21 16:35 | 47.14058 | 8.93571 | 38086 ft | 382 kts | 309° |
| 2026-04-21 16:35 | 47.16706 | 8.86863 | 38085 ft | 382 kts | 291° |
| 2026-04-21 16:36 | 47.18562 | 8.79558 | 38084 ft | 382 kts | 291° |
| 2026-04-21 16:36 | 47.20424 | 8.72253 | 38084 ft | 382 kts | 292° |
| 2026-04-21 16:37 | 47.22281 | 8.64933 | 38083 ft | 381 kts | 292° |
| 2026-04-21 16:37 | 47.24127 | 8.57625 | 38089 ft | 381 kts | 291° |
| 2026-04-21 16:38 | 47.25965 | 8.50316 | 38091 ft | 380 kts | 291° |
| 2026-04-21 16:38 | 47.27795 | 8.43065 | 38074 ft | 380 kts | 291° |
| 2026-04-21 16:39 | 47.29636 | 8.35765 | 38083 ft | 380 kts | 291° |
| 2026-04-21 16:39 | 47.31470 | 8.28451 | 38062 ft | 381 kts | 291° |
| 2026-04-21 16:40 | 47.33293 | 8.21122 | 38070 ft | 380 kts | 291° |
| 2026-04-21 16:40 | 47.35107 | 8.13788 | 38075 ft | 380 kts | 291° |
| 2026-04-21 16:41 | 47.36913 | 8.06460 | 38076 ft | 380 kts | 291° |
| 2026-04-21 16:41 | 47.38719 | 7.99132 | 38068 ft | 380 kts | 291° |
| 2026-04-21 16:42 | 47.40509 | 7.91848 | 38070 ft | 379 kts | 291° |
| 2026-04-21 16:42 | 47.42304 | 7.84512 | 38073 ft | 380 kts | 291° |
| 2026-04-21 16:43 | 47.44098 | 7.77171 | 38076 ft | 380 kts | 291° |
| 2026-04-21 16:43 | 47.45877 | 7.69829 | 38077 ft | 380 kts | 291° |
| 2026-04-21 16:44 | 47.47388 | 7.62351 | 38086 ft | 381 kts | 286° |
| 2026-04-21 16:44 | 47.48646 | 7.54743 | 38089 ft | 381 kts | 285° |
| 2026-04-21 16:45 | 47.49901 | 7.47135 | 38056 ft | 381 kts | 285° |
| 2026-04-21 16:45 | 47.51155 | 7.39585 | 38056 ft | 381 kts | 286° |
| 2026-04-21 16:46 | 47.52421 | 7.31978 | 38067 ft | 381 kts | 285° |
| 2026-04-21 16:46 | 47.53674 | 7.24367 | 38070 ft | 381 kts | 285° |
| 2026-04-21 16:47 | 47.54923 | 7.16746 | 38076 ft | 381 kts | 285° |
| 2026-04-21 16:47 | 47.56168 | 7.09110 | 38066 ft | 381 kts | 285° |
| 2026-04-21 16:48 | 47.57409 | 7.01480 | 38075 ft | 381 kts | 285° |
| 2026-04-21 16:48 | 47.58643 | 6.93845 | 38081 ft | 381 kts | 285° |
| 2026-04-21 16:49 | 47.59865 | 6.86263 | 38097 ft | 381 kts | 285° |
| 2026-04-21 16:49 | 47.61094 | 6.78627 | 38083 ft | 381 kts | 285° |
| 2026-04-21 16:50 | 47.62316 | 6.70976 | 38064 ft | 381 kts | 285° |
| 2026-04-21 16:50 | 47.63530 | 6.63326 | 38071 ft | 381 kts | 285° |
| 2026-04-21 16:51 | 47.64744 | 6.55666 | 38054 ft | 381 kts | 285° |
| 2026-04-21 16:51 | 47.65952 | 6.48013 | 38051 ft | 381 kts | 285° |
| 2026-04-21 16:52 | 47.67149 | 6.40341 | 38052 ft | 381 kts | 285° |
| 2026-04-21 16:52 | 47.68339 | 6.32674 | 38055 ft | 381 kts | 285° |
| 2026-04-21 16:53 | 47.69657 | 6.25059 | 38045 ft | 380 kts | 289° |
| 2026-04-21 16:53 | 47.71298 | 6.17610 | 38059 ft | 380 kts | 290° |
| 2026-04-21 16:54 | 47.72958 | 6.10219 | 38064 ft | 379 kts | 290° |
| 2026-04-21 16:54 | 47.74570 | 6.02747 | 38061 ft | 379 kts | 289° |
| 2026-04-21 16:55 | 47.76138 | 5.95259 | 38061 ft | 379 kts | 289° |
| 2026-04-21 16:55 | 47.77702 | 5.87762 | 38045 ft | 379 kts | 289° |
| 2026-04-21 16:56 | 47.79266 | 5.80272 | 38064 ft | 380 kts | 289° |
| 2026-04-21 16:56 | 47.80825 | 5.72772 | 38069 ft | 380 kts | 289° |
| 2026-04-21 16:57 | 47.82376 | 5.65268 | 38071 ft | 379 kts | 289° |
| 2026-04-21 16:57 | 47.83919 | 5.57818 | 38079 ft | 379 kts | 289° |
| 2026-04-21 16:58 | 47.85463 | 5.50321 | 38084 ft | 379 kts | 289° |
| 2026-04-21 16:58 | 47.87006 | 5.42831 | 38067 ft | 378 kts | 289° |
| 2026-04-21 16:59 | 47.88542 | 5.35332 | 38086 ft | 378 kts | 289° |
| 2026-04-21 16:59 | 47.90106 | 5.27848 | 38094 ft | 378 kts | 293° |
| 2026-04-21 17:00 | 47.92857 | 5.21258 | 38089 ft | 376 kts | 311° |
| 2026-04-21 17:00 | 47.95776 | 5.16435 | 38094 ft | 377 kts | 311° |
| 2026-04-21 17:01 | 47.99894 | 5.09654 | 38071 ft | 377 kts | 311° |
| 2026-04-21 17:01 | 48.03415 | 5.03845 | 38091 ft | 377 kts | 311° |
| 2026-04-21 17:02 | 48.06930 | 4.98019 | 38101 ft | 377 kts | 311° |
| 2026-04-21 17:02 | 48.10435 | 4.92191 | 38105 ft | 377 kts | 311° |
| 2026-04-21 17:03 | 48.13954 | 4.86367 | 38124 ft | 377 kts | 311° |
| 2026-04-21 17:03 | 48.17474 | 4.80539 | 38108 ft | 378 kts | 311° |
| 2026-04-21 17:04 | 48.20992 | 4.74684 | 38109 ft | 378 kts | 311° |
| 2026-04-21 17:04 | 48.24496 | 4.68800 | 38086 ft | 378 kts | 311° |
| 2026-04-21 17:05 | 48.27984 | 4.62899 | 38111 ft | 378 kts | 311° |
| 2026-04-21 17:05 | 48.30889 | 4.57997 | 38122 ft | 378 kts | 311° |
| 2026-04-21 17:06 | 48.34387 | 4.52102 | 38121 ft | 378 kts | 311° |
| 2026-04-21 17:06 | 48.38453 | 4.45247 | 38133 ft | 378 kts | 311° |
| 2026-04-21 17:07 | 48.41384 | 4.40294 | 38135 ft | 378 kts | 311° |
| 2026-04-21 17:07 | 48.44885 | 4.34350 | 38133 ft | 379 kts | 311° |
| 2026-04-21 17:08 | 48.48354 | 4.28440 | 38112 ft | 379 kts | 311° |
| 2026-04-21 17:08 | 48.51845 | 4.22484 | 38137 ft | 378 kts | 311° |
| 2026-04-21 17:09 | 48.57071 | 4.13547 | 38149 ft | 378 kts | 311° |
| 2026-04-21 17:09 | 48.60552 | 4.07588 | 38162 ft | 378 kts | 311° |
| 2026-04-21 17:10 | 48.64034 | 4.01612 | 38147 ft | 379 kts | 311° |
| 2026-04-21 17:10 | 48.67517 | 3.95621 | 38148 ft | 379 kts | 311° |
| 2026-04-21 17:11 | 48.70997 | 3.89609 | 38150 ft | 380 kts | 310° |
| 2026-04-21 17:11 | 48.74556 | 3.83696 | 38150 ft | 380 kts | 314° |
| 2026-04-21 17:12 | 48.78356 | 3.78101 | 38152 ft | 381 kts | 315° |
| 2026-04-21 17:12 | 48.82177 | 3.72599 | 38151 ft | 381 kts | 315° |
| 2026-04-21 17:13 | 48.85979 | 3.66993 | 38153 ft | 381 kts | 315° |
| 2026-04-21 17:13 | 48.89751 | 3.61338 | 38156 ft | 381 kts | 314° |
| 2026-04-21 17:14 | 48.93519 | 3.55678 | 38158 ft | 381 kts | 314° |
| 2026-04-21 17:14 | 48.97285 | 3.50011 | 38142 ft | 381 kts | 314° |
| 2026-04-21 17:15 | 49.01046 | 3.44348 | 38153 ft | 380 kts | 314° |
| 2026-04-21 17:15 | 49.04808 | 3.38675 | 38168 ft | 380 kts | 314° |
| 2026-04-21 17:16 | 49.08570 | 3.32982 | 38161 ft | 381 kts | 314° |
| 2026-04-21 17:16 | 49.12328 | 3.27281 | 38157 ft | 381 kts | 314° |
| 2026-04-21 17:17 | 49.16088 | 3.21569 | 38159 ft | 381 kts | 314° |
| 2026-04-21 17:17 | 49.19847 | 3.15845 | 38161 ft | 381 kts | 314° |
| 2026-04-21 17:18 | 49.23603 | 3.10110 | 38145 ft | 381 kts | 314° |
| 2026-04-21 17:18 | 49.27352 | 3.04368 | 38172 ft | 381 kts | 314° |
| 2026-04-21 17:19 | 49.31077 | 2.98654 | 38163 ft | 381 kts | 314° |
| 2026-04-21 17:19 | 49.34832 | 2.92905 | 38160 ft | 382 kts | 314° |
| 2026-04-21 17:20 | 49.38603 | 2.87137 | 38159 ft | 382 kts | 314° |
| 2026-04-21 17:20 | 49.42354 | 2.81349 | 38166 ft | 383 kts | 314° |
| 2026-04-21 17:21 | 49.46103 | 2.75548 | 38165 ft | 383 kts | 314° |
| 2026-04-21 17:21 | 49.49852 | 2.69724 | 38185 ft | 383 kts | 314° |
| 2026-04-21 17:22 | 49.53583 | 2.63920 | 38160 ft | 383 kts | 314° |
| 2026-04-21 17:22 | 49.57329 | 2.58084 | 38165 ft | 383 kts | 314° |
| 2026-04-21 17:23 | 49.61060 | 2.52208 | 38170 ft | 383 kts | 312° |
| 2026-04-21 17:23 | 49.64570 | 2.46023 | 38170 ft | 383 kts | 309° |
| 2026-04-21 17:24 | 49.67970 | 2.39684 | 38178 ft | 383 kts | 309° |
| 2026-04-21 17:24 | 49.71381 | 2.33358 | 38185 ft | 383 kts | 309° |
| 2026-04-21 17:25 | 49.74820 | 2.27063 | 38188 ft | 384 kts | 310° |
| 2026-04-21 17:25 | 49.78276 | 2.20765 | 38169 ft | 384 kts | 310° |
| 2026-04-21 17:26 | 49.81725 | 2.14455 | 38186 ft | 384 kts | 310° |
| 2026-04-21 17:26 | 49.85163 | 2.08127 | 38191 ft | 384 kts | 309° |
| 2026-04-21 17:27 | 49.88596 | 2.01785 | 38196 ft | 384 kts | 309° |
| 2026-04-21 17:27 | 49.92031 | 1.95438 | 38203 ft | 384 kts | 309° |
| 2026-04-21 17:28 | 49.95466 | 1.89095 | 38113 ft | 385 kts | 309° |
| 2026-04-21 17:28 | 49.97177 | 1.85925 | 37738 ft | 381 kts | 310° |
| 2026-04-21 17:28 | 49.98864 | 1.82785 | 37315 ft | 375 kts | 310° |
| 2026-04-21 17:29 | 50.00525 | 1.79692 | 36862 ft | 370 kts | 309° |
| 2026-04-21 17:29 | 50.02160 | 1.76643 | 36417 ft | 365 kts | 309° |
| 2026-04-21 17:29 | 50.03775 | 1.73631 | 35976 ft | 360 kts | 309° |
| 2026-04-21 17:29 | 50.05380 | 1.70635 | 35518 ft | 356 kts | 309° |
| 2026-04-21 17:30 | 50.06969 | 1.67734 | 35035 ft | 353 kts | 313° |
| 2026-04-21 17:30 | 50.08770 | 1.65151 | 34473 ft | 352 kts | 317° |
| 2026-04-21 17:30 | 50.10616 | 1.62661 | 33862 ft | 350 kts | 317° |
| 2026-04-21 17:30 | 50.12447 | 1.60181 | 33264 ft | 347 kts | 317° |
| 2026-04-21 17:31 | 50.14256 | 1.57723 | 32690 ft | 344 kts | 317° |
| 2026-04-21 17:31 | 50.16054 | 1.55278 | 32110 ft | 341 kts | 317° |
| 2026-04-21 17:31 | 50.17840 | 1.52849 | 31521 ft | 339 kts | 317° |
| 2026-04-21 17:31 | 50.19584 | 1.50475 | 30960 ft | 336 kts | 318° |
| 2026-04-21 17:32 | 50.20774 | 1.48857 | 30570 ft | 334 kts | 318° |
| 2026-04-21 17:32 | 50.23081 | 1.45717 | 29777 ft | 330 kts | 318° |
| 2026-04-21 17:32 | 50.24794 | 1.43379 | 29227 ft | 324 kts | 318° |
| 2026-04-21 17:32 | 50.26480 | 1.41075 | 28701 ft | 319 kts | 318° |
| 2026-04-21 17:33 | 50.28138 | 1.38805 | 28179 ft | 315 kts | 318° |
| 2026-04-21 17:33 | 50.29770 | 1.36560 | 27653 ft | 311 kts | 318° |
| 2026-04-21 17:33 | 50.31396 | 1.34322 | 27174 ft | 310 kts | 318° |
| 2026-04-21 17:33 | 50.33009 | 1.32107 | 26707 ft | 308 kts | 318° |
| 2026-04-21 17:34 | 50.34611 | 1.29906 | 26234 ft | 305 kts | 318° |
| 2026-04-21 17:34 | 50.36200 | 1.27719 | 25792 ft | 303 kts | 318° |
| 2026-04-21 17:34 | 50.37778 | 1.25551 | 25361 ft | 301 kts | 318° |
| 2026-04-21 17:34 | 50.39343 | 1.23398 | 24922 ft | 298 kts | 318° |
| 2026-04-21 17:35 | 50.40897 | 1.21260 | 24493 ft | 296 kts | 318° |
| 2026-04-21 17:35 | 50.42437 | 1.19138 | 24079 ft | 295 kts | 319° |
| 2026-04-21 17:35 | 50.43978 | 1.17010 | 23598 ft | 294 kts | 319° |
| 2026-04-21 17:35 | 50.45513 | 1.14886 | 23127 ft | 295 kts | 319° |
| 2026-04-21 17:36 | 50.47052 | 1.12753 | 22680 ft | 296 kts | 319° |
| 2026-04-21 17:36 | 50.48601 | 1.10605 | 22247 ft | 298 kts | 319° |
| 2026-04-21 17:36 | 50.50158 | 1.08445 | 21788 ft | 299 kts | 319° |
| 2026-04-21 17:36 | 50.51705 | 1.06244 | 21335 ft | 301 kts | 316° |
| 2026-04-21 17:37 | 50.53148 | 1.03841 | 20852 ft | 303 kts | 314° |
| 2026-04-21 17:37 | 50.54589 | 1.01414 | 20393 ft | 305 kts | 314° |
| 2026-04-21 17:37 | 50.55549 | 0.99796 | 20074 ft | 305 kts | 315° |
| 2026-04-21 17:37 | 50.57483 | 0.96534 | 19443 ft | 304 kts | 315° |
| 2026-04-21 17:38 | 50.58912 | 0.94123 | 18992 ft | 307 kts | 315° |
| 2026-04-21 17:38 | 50.60377 | 0.91646 | 18504 ft | 310 kts | 314° |
| 2026-04-21 17:38 | 50.61844 | 0.89151 | 18003 ft | 310 kts | 315° |
| 2026-04-21 17:38 | 50.63304 | 0.86659 | 17531 ft | 309 kts | 315° |
| 2026-04-21 17:39 | 50.64761 | 0.84170 | 17067 ft | 308 kts | 315° |
| 2026-04-21 17:39 | 50.66220 | 0.81680 | 16613 ft | 311 kts | 315° |
| 2026-04-21 17:39 | 50.67687 | 0.79165 | 16152 ft | 312 kts | 314° |
| 2026-04-21 17:39 | 50.69150 | 0.76478 | 15544 ft | 330 kts | 313° |
| 2026-04-21 17:40 | 50.70606 | 0.73647 | 14939 ft | 334 kts | 311° |
| 2026-04-21 17:40 | 50.72052 | 0.70758 | 14323 ft | 337 kts | 310° |
| 2026-04-21 17:40 | 50.73506 | 0.67836 | 13663 ft | 340 kts | 310° |
| 2026-04-21 17:40 | 50.74972 | 0.64907 | 13022 ft | 340 kts | 311° |
| 2026-04-21 17:41 | 50.76446 | 0.61983 | 12412 ft | 340 kts | 312° |
| 2026-04-21 17:41 | 50.77925 | 0.59059 | 11785 ft | 340 kts | 311° |
| 2026-04-21 17:41 | 50.79402 | 0.56142 | 11272 ft | 338 kts | 311° |
| 2026-04-21 17:41 | 50.80840 | 0.53303 | 11117 ft | 323 kts | 311° |
| 2026-04-21 17:42 | 50.82214 | 0.50592 | 10976 ft | 310 kts | 312° |
| 2026-04-21 17:42 | 50.83550 | 0.47952 | 10647 ft | 306 kts | 312° |
| 2026-04-21 17:42 | 50.84879 | 0.45328 | 10290 ft | 304 kts | 311° |
| 2026-04-21 17:42 | 50.86203 | 0.42720 | 9885 ft | 301 kts | 311° |
| 2026-04-21 17:43 | 50.87497 | 0.40174 | 9368 ft | 303 kts | 311° |
| 2026-04-21 17:43 | 50.88821 | 0.37566 | 8948 ft | 301 kts | 311° |
| 2026-04-21 17:43 | 50.90120 | 0.34992 | 8455 ft | 301 kts | 312° |
| 2026-04-21 17:43 | 50.91437 | 0.32376 | 7849 ft | 305 kts | 311° |
| 2026-04-21 17:44 | 50.92745 | 0.29766 | 7629 ft | 297 kts | 312° |
| 2026-04-21 17:44 | 50.94024 | 0.27218 | 7507 ft | 294 kts | 311° |
| 2026-04-21 17:44 | 50.95292 | 0.24689 | 7388 ft | 292 kts | 311° |
| 2026-04-21 17:44 | 50.96544 | 0.22159 | 7266 ft | 290 kts | 311° |
| 2026-04-21 17:45 | 50.97788 | 0.19628 | 7146 ft | 291 kts | 311° |
| 2026-04-21 17:45 | 50.99034 | 0.17083 | 7027 ft | 292 kts | 310° |
| 2026-04-21 17:45 | 51.00278 | 0.14543 | 6898 ft | 291 kts | 310° |
| 2026-04-21 17:45 | 51.01335 | 0.11797 | 6766 ft | 293 kts | 294° |
| 2026-04-21 17:46 | 51.01870 | 0.08685 | 6616 ft | 294 kts | 277° |
| 2026-04-21 17:46 | 51.02037 | 0.05445 | 6465 ft | 295 kts | 275° |
| 2026-04-21 17:46 | 51.02199 | 0.02212 | 6312 ft | 293 kts | 275° |
| 2026-04-21 17:46 | 51.02367 | -0.01024 | 6108 ft | 294 kts | 275° |
| 2026-04-21 17:47 | 51.02536 | -0.04261 | 5976 ft | 293 kts | 275° |
| 2026-04-21 17:47 | 51.02703 | -0.07485 | 5843 ft | 293 kts | 275° |
| 2026-04-21 17:47 | 51.02867 | -0.10697 | 5618 ft | 288 kts | 275° |
| 2026-04-21 17:47 | 51.03023 | -0.13807 | 5375 ft | 277 kts | 275° |
| 2026-04-21 17:48 | 51.03124 | -0.15805 | 5198 ft | 272 kts | 275° |
| 2026-04-21 17:48 | 51.03326 | -0.19705 | 4856 ft | 262 kts | 275° |
| 2026-04-21 17:48 | 51.03465 | -0.22559 | 4592 ft | 256 kts | 275° |
| 2026-04-21 17:48 | 51.03595 | -0.25359 | 4331 ft | 251 kts | 275° |
| 2026-04-21 17:49 | 51.03724 | -0.28100 | 4070 ft | 246 kts | 275° |
| 2026-04-21 17:49 | 51.03849 | -0.30786 | 3815 ft | 242 kts | 275° |
| 2026-04-21 17:49 | 51.03966 | -0.33454 | 3561 ft | 241 kts | 275° |
| 2026-04-21 17:49 | 51.04076 | -0.36097 | 3301 ft | 239 kts | 275° |
| 2026-04-21 17:50 | 51.04182 | -0.38727 | 3066 ft | 237 kts | 276° |
| 2026-04-21 17:50 | 51.04269 | -0.41288 | 2999 ft | 226 kts | 275° |
| 2026-04-21 17:50 | 51.04358 | -0.43727 | 3008 ft | 217 kts | 279° |
| 2026-04-21 17:50 | 51.04897 | -0.45849 | 3004 ft | 202 kts | 319° |
| 2026-04-21 17:51 | 51.06016 | -0.46976 | 3017 ft | 185 kts | 352° |
| 2026-04-21 17:51 | 51.07264 | -0.47383 | 3021 ft | 182 kts | 360° |
| 2026-04-21 17:51 | 51.08095 | -0.47570 | 3017 ft | 182 kts | 2° |
| 2026-04-21 17:51 | 51.09308 | -0.47423 | 3018 ft | 170 kts | 24° |
| 2026-04-21 17:52 | 51.10328 | -0.46581 | 3031 ft | 163 kts | 45° |
| 2026-04-21 17:52 | 51.11044 | -0.45238 | 3029 ft | 158 kts | 64° |
| 2026-04-21 17:52 | 51.11387 | -0.43601 | 3018 ft | 157 kts | 78° |
| 2026-04-21 17:52 | 51.11625 | -0.41904 | 2906 ft | 158 kts | 77° |
| 2026-04-21 17:53 | 51.11865 | -0.40205 | 2732 ft | 157 kts | 77° |
| 2026-04-21 17:53 | 51.12103 | -0.38510 | 2526 ft | 157 kts | 77° |
| 2026-04-21 17:53 | 51.12339 | -0.36824 | 2320 ft | 155 kts | 77° |
| 2026-04-21 17:53 | 51.12570 | -0.35173 | 2107 ft | 146 kts | 76° |
| 2026-04-21 17:54 | 51.12781 | -0.33666 | 1919 ft | 132 kts | 76° |
| 2026-04-21 17:54 | 51.12965 | -0.32348 | 1796 ft | 116 kts | 76° |
| 2026-04-21 17:54 | 51.13138 | -0.31135 | 1621 ft | 111 kts | 76° |
| 2026-04-21 17:54 | 51.13302 | -0.29950 | 1429 ft | 108 kts | 75° |
| 2026-04-21 17:55 | 51.13462 | -0.28790 | 1298 ft | 106 kts | 75° |
| 2026-04-21 17:55 | 51.13622 | -0.27627 | 1142 ft | 109 kts | 76° |
| 2026-04-21 17:55 | 51.13786 | -0.26452 | 958 ft | 111 kts | 76° |
| 2026-04-21 17:55 | 51.13951 | -0.25276 | 824 ft | 110 kts | 75° |
| 2026-04-21 17:56 | 51.14116 | -0.24115 | 672 ft | 110 kts | 76° |
| 2026-04-21 17:56 | 51.14276 | -0.22937 | 528 ft | 108 kts | 76° |
| 2026-04-21 17:56 | 51.14435 | -0.21778 | 381 ft | 109 kts | 75° |
| 2026-04-21 17:56 | 51.14598 | -0.20598 | 262 ft | 108 kts | 76° |
| 2026-04-21 17:57 | 51.14754 | -0.19483 | 213 ft | 89 kts | 77° |
| 2026-04-21 17:57 | 51.14850 | -0.18774 | 202 ft | 47 kts | 77° |
| 2026-04-21 17:57 | 51.14912 | -0.18330 | 204 ft | 33 kts | 78° |
| 2026-04-21 17:57 | 51.14965 | -0.18009 | 211 ft | 27 kts | 65° |
| 2026-04-21 17:58 | 51.15039 | -0.17834 | 214 ft | 13 kts | 53° |
| 2026-04-21 17:58 | 51.15106 | -0.17758 | 208 ft | 7 kts | 5° |
| 2026-04-21 17:58 | 51.15112 | -0.17758 | 207 ft | 0 kts | 359° |
| 2026-04-21 17:58 | 51.15133 | -0.17760 | 205 ft | 10 kts | 353° |
| 2026-04-21 17:59 | 51.15217 | -0.17777 | 205 ft | 14 kts | 353° |
| 2026-04-21 17:59 | 51.15277 | -0.17661 | 207 ft | 17 kts | 81° |
| 2026-04-21 17:59 | 51.15298 | -0.17462 | 207 ft | 17 kts | 79° |
| 2026-04-21 17:59 | 51.15381 | -0.17381 | 204 ft | 18 kts | 348° |
| 2026-04-21 18:00 | 51.15519 | -0.17427 | 213 ft | 23 kts | 346° |
| 2026-04-21 18:00 | 51.15674 | -0.17479 | 208 ft | 18 kts | 349° |
| 2026-04-21 18:00 | 51.15749 | -0.17550 | 210 ft | 13 kts | 285° |
| 2026-04-21 18:00 | 51.15734 | -0.17706 | 210 ft | 16 kts | 257° |
| 2026-04-21 18:01 | 51.15714 | -0.17850 | 208 ft | 5 kts | 251° |
| 2026-04-21 18:01 | 51.15678 | -0.17863 | 210 ft | 7 kts | 169° |
| 2026-04-21 18:01 | 51.15646 | -0.17851 | 208 ft | 2 kts | 167° |
| 2026-04-21 18:01 | 51.15638 | -0.17848 | 206 ft | 1 kts | 167° |
| 2026-04-21 18:02 | 51.15637 | -0.17848 | 206 ft | 0 kts | 167° |